Cranfills Gap, Texas
Current Conditions -  °F | °C
As of 12:35 AM on Friday 19 Dec 2014 (Local Time) from KMNZ Reporting Station
Overcast Overcast  
Wind Chill: 45°   Ceiling: 1000
Heat Index: 47°   Visibility: 10mi
Dew Point: 46°   Wind: 5mph
Humidity: 97%   Direction: 50°NE
Pressure: 30.13"   Gusts: NA
Location:  31.77°N, 97.83°W
Report Text: KMNZ 190635Z AUTO 05004KT 10SM SCT005 BKN010 OVC070 08/08 A3013 RMK AO2 T00830078
Loading
Personal Weather Stations






























Interactive Weather Map New forecast layout! Learn more

10-Day Weather Forecast

Advertisements
Track Severe Weather on mobile